createdAt,value
2023-05-14T00:00:44.764Z,100338.69
2023-05-14T00:03:12.443Z,100333.03
2023-05-14T00:05:39.664Z,100322.94
2023-05-14T00:08:06.899Z,100321.47
2023-05-14T00:10:34.423Z,100319.44
2023-05-14T00:13:01.578Z,100311.06
2023-05-14T00:15:28.735Z,100308.50
2023-05-14T00:17:56.187Z,100310.50
2023-05-14T00:20:23.631Z,100307.00
2023-05-14T00:22:50.902Z,100311.41
2023-05-14T00:25:18.421Z,100302.78
2023-05-14T00:27:46.014Z,100309.16
2023-05-14T00:30:13.169Z,100309.91
2023-05-14T00:32:40.541Z,100304.06
2023-05-14T00:35:07.929Z,100298.25
2023-05-14T00:37:36.372Z,100301.63
2023-05-14T00:40:04.411Z,100295.66
2023-05-14T00:42:31.561Z,100293.38
2023-05-14T00:44:58.755Z,100290.97
2023-05-14T00:47:26.423Z,100294.37
2023-05-14T00:49:53.570Z,100287.78
2023-05-14T00:52:20.757Z,100278.53
2023-05-14T00:54:48.214Z,100281.94
2023-05-14T00:57:15.361Z,100275.00
2023-05-14T00:59:42.850Z,100272.38
2023-05-14T01:02:10.771Z,100276.22
2023-05-14T01:04:38.131Z,100278.31
2023-05-14T01:07:05.301Z,100273.69
2023-05-14T01:09:36.735Z,100267.06
2023-05-14T01:12:07.028Z,100267.34
2023-05-14T01:14:49.055Z,100266.84
2023-05-14T01:17:16.221Z,100264.09
2023-05-14T01:19:44.022Z,100258.16
2023-05-14T01:22:12.171Z,100259.75
2023-05-14T01:24:39.386Z,100254.34
2023-05-14T01:27:25.654Z,100247.94
2023-05-14T01:30:16.108Z,100249.38
2023-05-14T01:32:44.085Z,100251.50
2023-05-14T01:35:11.405Z,100245.72
2023-05-14T01:37:38.639Z,100238.84
2023-05-14T01:40:06.780Z,100232.69
2023-05-14T01:42:33.980Z,100238.94
2023-05-14T01:45:01.116Z,100224.34
2023-05-14T01:47:28.655Z,100224.44
2023-05-14T01:49:55.817Z,100213.63
2023-05-14T01:52:22.997Z,100215.00
2023-05-14T01:54:50.496Z,100203.78
2023-05-14T01:57:17.752Z,100202.69
2023-05-14T01:59:44.926Z,100208.38
2023-05-14T02:02:12.322Z,100200.03
2023-05-14T02:04:39.732Z,100207.31
2023-05-14T02:07:06.935Z,100207.44
2023-05-14T02:09:34.123Z,100197.50
2023-05-14T02:12:01.636Z,100201.19
2023-05-14T02:14:29.078Z,100201.62
2023-05-14T02:16:56.325Z,100203.78
2023-05-14T02:19:23.575Z,100196.63
2023-05-14T02:21:50.962Z,100197.03
2023-05-14T02:24:18.099Z,100197.34
2023-05-14T02:26:45.248Z,100195.97
2023-05-14T02:29:12.704Z,100185.53
2023-05-14T02:31:39.947Z,100196.19
2023-05-14T02:34:07.321Z,100186.34
2023-05-14T02:36:35.245Z,100192.53
2023-05-14T02:39:02.525Z,100183.56
2023-05-14T02:41:29.681Z,100184.81
2023-05-14T02:43:57.435Z,100187.69
2023-05-14T02:46:24.802Z,100194.84
2023-05-14T02:48:52.046Z,100189.94
2023-05-14T02:51:20.191Z,100190.28
2023-05-14T02:53:47.314Z,100186.16
2023-05-14T02:56:14.630Z,100193.19
2023-05-14T02:58:42.249Z,100191.78
2023-05-14T03:01:09.503Z,100183.13
2023-05-14T03:03:38.236Z,100194.16
2023-05-14T03:06:06.215Z,100179.69
2023-05-14T03:08:33.415Z,100169.56
2023-05-14T03:11:00.620Z,100173.72
2023-05-14T03:13:28.228Z,100181.41
2023-05-14T03:15:55.721Z,100184.47
2023-05-14T03:18:23.063Z,100184.56
2023-05-14T03:20:50.487Z,100187.28
2023-05-14T03:23:17.612Z,100175.19
2023-05-14T03:25:45.335Z,100174.62
2023-05-14T03:28:12.735Z,100173.91
2023-05-14T03:30:40.013Z,100167.78
2023-05-14T03:33:07.370Z,100169.09
2023-05-14T03:35:35.124Z,100166.94
2023-05-14T03:38:02.546Z,100168.44
2023-05-14T03:40:31.201Z,100171.69
2023-05-14T03:42:58.704Z,100177.69
2023-05-14T03:45:28.656Z,100183.56
2023-05-14T03:47:59.332Z,100180.50
2023-05-14T03:50:27.062Z,100176.00
2023-05-14T03:52:55.053Z,100168.81
2023-05-14T03:55:23.294Z,100155.91
2023-05-14T03:57:50.790Z,100159.50
2023-05-14T04:00:18.162Z,100162.59
2023-05-14T04:02:45.381Z,100164.72
2023-05-14T04:05:13.019Z,100168.81
2023-05-14T04:07:40.280Z,100164.94
2023-05-14T04:10:07.719Z,100168.25
2023-05-14T04:12:35.394Z,100163.06
2023-05-14T04:15:03.135Z,100162.87
2023-05-14T04:17:30.347Z,100158.81
2023-05-14T04:19:57.758Z,100160.50
2023-05-14T04:22:25.722Z,100163.88
2023-05-14T04:24:53.271Z,100155.41
2023-05-14T04:27:23.722Z,100153.63
2023-05-14T04:29:50.931Z,100153.78
2023-05-14T04:32:18.326Z,100155.28
2023-05-14T04:34:46.955Z,100147.88
2023-05-14T04:37:14.325Z,100153.69
2023-05-14T04:39:41.524Z,100158.28
2023-05-14T04:42:09.000Z,100156.97
2023-05-14T04:44:37.581Z,100156.31
2023-05-14T04:47:04.783Z,100160.69
2023-05-14T04:49:32.220Z,100165.31
2023-05-14T04:51:59.441Z,100161.31
2023-05-14T04:54:26.676Z,100168.53
2023-05-14T04:56:55.904Z,100159.88
2023-05-14T04:59:23.023Z,100157.97
2023-05-14T05:01:51.681Z,100154.81
2023-05-14T05:04:19.297Z,100153.97
2023-05-14T05:06:46.557Z,100158.41
2023-05-14T05:09:14.106Z,100149.91
2023-05-14T05:11:41.555Z,100148.09
2023-05-14T05:14:08.735Z,100148.13
2023-05-14T05:16:36.137Z,100143.69
2023-05-14T05:19:03.638Z,100144.63
2023-05-14T05:21:30.818Z,100145.50
2023-05-14T05:23:57.976Z,100153.53
2023-05-14T05:26:26.903Z,100139.28
2023-05-14T05:28:54.107Z,100139.75
2023-05-14T05:31:21.358Z,100142.44
2023-05-14T05:33:48.860Z,100145.16
2023-05-14T05:36:16.067Z,100138.13
2023-05-14T05:38:43.308Z,100144.03
2023-05-14T05:41:11.545Z,100148.84
2023-05-14T05:43:38.693Z,100136.69
2023-05-14T05:46:06.727Z,100139.56
2023-05-14T05:48:34.286Z,100151.09
2023-05-14T05:51:01.536Z,100151.81
2023-05-14T05:53:28.689Z,100137.38
2023-05-14T05:55:57.086Z,100149.84
2023-05-14T05:58:24.261Z,100152.44
2023-05-14T06:00:51.533Z,100165.53
2023-05-14T06:03:19.232Z,100152.69
2023-05-14T06:05:46.807Z,100157.41
2023-05-14T06:08:14.139Z,100159.56
2023-05-14T06:10:41.555Z,100159.50
2023-05-14T06:13:08.729Z,100165.31
2023-05-14T06:15:35.903Z,100155.00
2023-05-14T06:18:03.418Z,100158.19
2023-05-14T06:20:30.622Z,100163.06
2023-05-14T06:22:58.073Z,100168.75
2023-05-14T06:25:25.549Z,100167.47
2023-05-14T06:27:52.686Z,100174.12
2023-05-14T06:30:19.879Z,100167.66
2023-05-14T06:32:47.384Z,100163.06
2023-05-14T06:35:14.684Z,100168.12
2023-05-14T06:37:42.217Z,100164.12
2023-05-14T06:40:10.786Z,100160.69
2023-05-14T06:42:38.174Z,100160.47
2023-05-14T06:45:05.771Z,100153.69
2023-05-14T06:47:33.486Z,100148.09
2023-05-14T06:50:01.937Z,100148.28
2023-05-14T06:52:29.616Z,100147.50
2023-05-14T06:54:57.051Z,100144.94
2023-05-14T06:57:24.340Z,100144.00
2023-05-14T06:59:51.506Z,100142.13
2023-05-14T07:02:18.921Z,100137.88
2023-05-14T07:04:46.671Z,100140.38
2023-05-14T07:07:15.543Z,100132.53
2023-05-14T07:09:43.170Z,100121.38
2023-05-14T07:12:10.397Z,100116.50
2023-05-14T07:14:37.661Z,100114.09
2023-05-14T07:17:05.142Z,100119.72
2023-05-14T07:19:32.365Z,100115.53
2023-05-14T07:21:59.517Z,100122.84
2023-05-14T07:24:26.965Z,100117.69
2023-05-14T07:26:54.581Z,100105.00
2023-05-14T07:29:21.691Z,100114.06
2023-05-14T07:31:49.161Z,100103.62
2023-05-14T07:34:16.404Z,100116.66
2023-05-14T07:36:43.551Z,100112.16
2023-05-14T07:39:11.031Z,100106.59
2023-05-14T07:41:38.586Z,100105.56
2023-05-14T07:44:05.812Z,100111.50
2023-05-14T07:46:33.228Z,100103.84
2023-05-14T07:49:00.374Z,100093.00
2023-05-14T07:51:28.517Z,100089.81
2023-05-14T07:53:56.035Z,100091.19
2023-05-14T07:56:23.213Z,100092.22
2023-05-14T07:58:51.006Z,100094.44
2023-05-14T08:01:18.619Z,100092.91
2023-05-14T08:03:46.156Z,100088.53
2023-05-14T08:06:13.340Z,100079.91
2023-05-14T08:08:40.915Z,100073.34
2023-05-14T08:11:08.545Z,100078.13
2023-05-14T08:13:35.730Z,100068.00
2023-05-14T08:16:02.913Z,100061.00
2023-05-14T08:18:30.413Z,100059.69
2023-05-14T08:20:57.900Z,100055.88
2023-05-14T08:23:25.356Z,100055.34
2023-05-14T08:25:52.822Z,100069.53
2023-05-14T08:28:20.041Z,100060.31
2023-05-14T08:30:47.631Z,100057.66
2023-05-14T08:33:15.117Z,100046.84
2023-05-14T08:35:42.244Z,100046.59
2023-05-14T08:38:09.417Z,100040.66
2023-05-14T08:40:36.938Z,100034.94
2023-05-14T08:43:04.136Z,100040.31
2023-05-14T08:45:34.436Z,100038.69
2023-05-14T08:48:02.116Z,100037.37
2023-05-14T08:50:30.598Z,100028.28
2023-05-14T08:52:58.445Z,100033.72
2023-05-14T08:55:26.188Z,100033.00
2023-05-14T08:57:53.734Z,100037.16
2023-05-14T09:00:21.026Z,100037.94
2023-05-14T09:02:48.824Z,100034.16
2023-05-14T09:05:16.014Z,100031.62
2023-05-14T09:07:43.288Z,100031.94
2023-05-14T09:10:10.770Z,100036.56
2023-05-14T09:12:38.013Z,100042.00
2023-05-14T09:15:05.542Z,100041.91
2023-05-14T09:17:33.010Z,100036.25
2023-05-14T09:20:00.326Z,100030.03
2023-05-14T09:22:29.195Z,100030.47
2023-05-14T09:25:06.766Z,100024.13
2023-05-14T09:27:34.277Z,100021.28
2023-05-14T09:30:05.158Z,100011.59
2023-05-14T09:32:35.818Z,100005.12
2023-05-14T09:35:19.708Z,100007.69
2023-05-14T09:37:53.763Z,100007.56
2023-05-14T09:40:22.293Z,100012.34
2023-05-14T09:42:49.799Z,100000.31
2023-05-14T09:45:17.091Z,99986.91
2023-05-14T09:47:45.225Z,99989.03
2023-05-14T09:50:12.757Z,99983.94
2023-05-14T09:52:40.060Z,99982.59
2023-05-14T09:55:08.105Z,99978.47
2023-05-14T09:57:35.450Z,99973.84
2023-05-14T10:00:02.809Z,99965.78
2023-05-14T10:02:37.846Z,99955.00
2023-05-14T10:05:06.459Z,99942.31
2023-05-14T10:07:38.631Z,99946.16
2023-05-14T10:10:07.839Z,99939.19
2023-05-14T10:12:36.316Z,99932.66
2023-05-14T10:15:04.922Z,99917.09
2023-05-14T10:17:32.722Z,99907.25
2023-05-14T10:19:59.978Z,99905.50
2023-05-14T10:22:27.810Z,99893.66
2023-05-14T10:24:55.432Z,99872.66
2023-05-14T10:27:22.635Z,99864.66
2023-05-14T10:29:56.354Z,99876.31
2023-05-14T10:32:25.633Z,99887.66
2023-05-14T10:34:53.729Z,99910.63
2023-05-14T10:37:25.567Z,99907.09
2023-05-14T10:39:53.849Z,99898.44
2023-05-14T10:42:23.976Z,99899.19
2023-05-14T10:44:58.887Z,99892.25
2023-05-14T10:47:26.382Z,99889.50
2023-05-14T10:49:57.745Z,99899.63
2023-05-14T10:52:24.967Z,99889.84
2023-05-14T10:54:52.789Z,99891.31
2023-05-14T10:57:20.637Z,99889.13
2023-05-14T10:59:48.785Z,99889.59
2023-05-14T11:02:25.364Z,99888.66
2023-05-14T11:04:53.360Z,99893.87
2023-05-14T11:07:23.085Z,99889.13
2023-05-14T11:09:50.710Z,99884.63
2023-05-14T11:12:18.179Z,99875.00
2023-05-14T11:14:45.554Z,99868.72
2023-05-14T11:17:12.791Z,99873.25
2023-05-14T11:19:39.984Z,99873.19
2023-05-14T11:22:08.106Z,99878.19
2023-05-14T11:24:35.374Z,99869.94
2023-05-14T11:27:02.652Z,99868.47
2023-05-14T11:29:30.220Z,99867.25
2023-05-14T11:31:57.407Z,99871.13
2023-05-14T11:34:24.637Z,99870.50
2023-05-14T11:36:52.051Z,99871.69
2023-05-14T11:39:19.338Z,99876.66
2023-05-14T11:41:46.454Z,99876.03
2023-05-14T11:44:13.959Z,99871.19
2023-05-14T11:46:41.349Z,99863.87
2023-05-14T11:49:08.559Z,99863.75
2023-05-14T11:51:36.071Z,99867.34
2023-05-14T11:54:04.047Z,99866.03
2023-05-14T11:56:31.168Z,99863.75
2023-05-14T11:58:58.595Z,99868.25
2023-05-14T12:01:25.772Z,99861.84
2023-05-14T12:03:53.253Z,99851.38
2023-05-14T12:06:20.563Z,99851.56
2023-05-14T12:08:48.995Z,99847.00
2023-05-14T12:11:21.049Z,99831.38
2023-05-14T12:13:48.187Z,99830.94
2023-05-14T12:16:15.961Z,99832.16
2023-05-14T12:18:43.489Z,99825.87
2023-05-14T12:21:12.062Z,99817.63
2023-05-14T12:23:39.624Z,99813.41
2023-05-14T12:26:08.233Z,99803.09
2023-05-14T12:28:38.215Z,99811.37
2023-05-14T12:31:05.906Z,99815.38
2023-05-14T12:33:33.408Z,99804.56
2023-05-14T12:36:10.002Z,99807.72
2023-05-14T12:38:41.637Z,99810.87
2023-05-14T12:41:08.853Z,99811.06
2023-05-14T12:43:36.046Z,99809.97
2023-05-14T12:46:03.507Z,99810.47
2023-05-14T12:48:31.363Z,99804.38
2023-05-14T12:50:58.495Z,99806.69
2023-05-14T12:53:26.225Z,99792.22
2023-05-14T12:55:53.536Z,99788.41
2023-05-14T12:58:20.846Z,99788.09
2023-05-14T13:00:48.284Z,99772.87
2023-05-14T13:03:17.759Z,99770.91
2023-05-14T13:05:44.877Z,99770.00
2023-05-14T13:08:14.796Z,99758.91
2023-05-14T13:10:42.016Z,99764.59
2023-05-14T13:13:09.189Z,99761.75
2023-05-14T13:15:36.694Z,99759.09
2023-05-14T13:18:04.280Z,99752.28
2023-05-14T13:20:31.447Z,99737.94
2023-05-14T13:22:58.879Z,99727.59
2023-05-14T13:25:26.237Z,99726.50
2023-05-14T13:27:53.514Z,99717.16
2023-05-14T13:30:20.977Z,99715.44
2023-05-14T13:32:48.225Z,99716.88
2023-05-14T13:35:15.457Z,99719.97
2023-05-14T13:37:43.254Z,99719.22
2023-05-14T13:40:11.092Z,99714.53
2023-05-14T13:42:39.877Z,99708.59
2023-05-14T13:45:07.728Z,99703.63
2023-05-14T13:47:36.076Z,99692.56
2023-05-14T13:50:03.454Z,99696.75
2023-05-14T13:52:31.539Z,99701.78
2023-05-14T13:54:58.717Z,99683.91
2023-05-14T13:57:26.461Z,99680.09
2023-05-14T13:59:56.764Z,99689.97
2023-05-14T14:02:23.978Z,99686.44
2023-05-14T14:04:51.409Z,99681.81
2023-05-14T14:07:18.824Z,99681.59
2023-05-14T14:09:46.139Z,99675.94
2023-05-14T14:12:13.700Z,99677.22
2023-05-14T14:14:41.101Z,99672.38
2023-05-14T14:17:09.076Z,99681.03
2023-05-14T14:19:36.711Z,99676.66
2023-05-14T14:22:12.663Z,99681.78
2023-05-14T14:24:40.196Z,99675.69
2023-05-14T14:27:07.837Z,99670.34
2023-05-14T14:29:35.555Z,99670.56
2023-05-14T14:32:04.693Z,99675.44
2023-05-14T14:34:31.909Z,99662.84
2023-05-14T14:36:59.064Z,99672.72
2023-05-14T14:39:27.011Z,99666.50
2023-05-14T14:41:54.164Z,99665.09
2023-05-14T14:44:21.308Z,99664.31
2023-05-14T14:46:48.709Z,99664.31
2023-05-14T14:49:15.866Z,99663.06
2023-05-14T14:51:43.143Z,99656.13
2023-05-14T14:54:10.646Z,99655.16
2023-05-14T14:56:37.881Z,99659.22
2023-05-14T14:59:05.036Z,99654.94
2023-05-14T15:01:32.528Z,99645.81
2023-05-14T15:03:59.707Z,99647.06
2023-05-14T15:06:26.864Z,99633.13
2023-05-14T15:08:54.339Z,99631.59
2023-05-14T15:11:22.086Z,99626.47
2023-05-14T15:13:49.268Z,99618.47
2023-05-14T15:16:16.797Z,99616.31
2023-05-14T15:18:44.054Z,99614.28
2023-05-14T15:21:11.244Z,99621.28
2023-05-14T15:23:38.649Z,99618.91
2023-05-14T15:26:05.910Z,99619.37
2023-05-14T15:28:33.299Z,99615.53
2023-05-14T15:31:02.465Z,99621.66
2023-05-14T15:33:29.665Z,99626.63
2023-05-14T15:35:56.812Z,99629.94
2023-05-14T15:38:24.267Z,99626.16
2023-05-14T15:40:51.891Z,99625.66
2023-05-14T15:43:19.074Z,99625.50
2023-05-14T15:45:46.557Z,99621.13
2023-05-14T15:48:13.815Z,99605.19
2023-05-14T15:50:41.903Z,99607.84
2023-05-14T15:53:09.374Z,99593.19
2023-05-14T15:55:36.557Z,99571.06
2023-05-14T15:58:03.955Z,99569.41
2023-05-14T16:00:31.483Z,99562.66
2023-05-14T16:03:01.323Z,99550.91
2023-05-14T16:05:28.520Z,99553.00
2023-05-14T16:07:55.720Z,99551.78
2023-05-14T16:10:23.365Z,99558.47
2023-05-14T16:12:50.833Z,99560.88
2023-05-14T16:15:18.013Z,99563.84
2023-05-14T16:17:45.928Z,99564.81
2023-05-14T16:20:13.098Z,99567.59
2023-05-14T16:22:40.335Z,99563.84
2023-05-14T16:25:07.975Z,99567.06
2023-05-14T16:27:35.169Z,99565.72
2023-05-14T16:30:02.296Z,99569.38
2023-05-14T16:32:31.785Z,99569.13
2023-05-14T16:34:59.237Z,99559.16
2023-05-14T16:37:26.469Z,99559.00
2023-05-14T16:39:54.004Z,99555.31
2023-05-14T16:42:21.394Z,99550.78
2023-05-14T16:44:48.646Z,99550.22
2023-05-14T16:47:16.232Z,99538.19
2023-05-14T16:49:43.417Z,99528.69
2023-05-14T16:52:10.770Z,99526.59
2023-05-14T16:54:38.219Z,99536.47
2023-05-14T16:57:06.216Z,99541.44
2023-05-14T16:59:33.575Z,99531.09
2023-05-14T17:02:01.262Z,99533.94
2023-05-14T17:04:28.553Z,99523.97
2023-05-14T17:06:57.262Z,99531.03
2023-05-14T17:09:26.055Z,99514.72
2023-05-14T17:11:54.151Z,99519.84
2023-05-14T17:14:21.719Z,99506.41
2023-05-14T17:16:49.139Z,99511.00
2023-05-14T17:19:16.743Z,99500.53
2023-05-14T17:21:44.112Z,99499.28
2023-05-14T17:24:11.581Z,99500.81
2023-05-14T17:26:39.129Z,99493.62
2023-05-14T17:29:06.311Z,99483.31
2023-05-14T17:31:33.858Z,99482.47
2023-05-14T17:34:01.020Z,99467.25
2023-05-14T17:36:28.646Z,99464.66
2023-05-14T17:38:56.228Z,99458.78
2023-05-14T17:41:23.588Z,99460.41
2023-05-14T17:43:52.520Z,99470.25
2023-05-14T17:46:20.098Z,99459.56
2023-05-14T17:48:47.370Z,99466.16
2023-05-14T17:51:14.793Z,99460.09
2023-05-14T17:53:42.328Z,99460.84
2023-05-14T17:56:09.760Z,99463.09
2023-05-14T17:58:36.978Z,99447.28
2023-05-14T18:01:06.025Z,99451.59
2023-05-14T18:03:34.199Z,99451.87
2023-05-14T18:06:01.796Z,99457.47
2023-05-14T18:08:30.209Z,99444.72
2023-05-14T18:11:00.124Z,99440.47
2023-05-14T18:13:27.885Z,99449.34
2023-05-14T18:15:56.565Z,99450.66
2023-05-14T18:18:24.098Z,99459.47
2023-05-14T18:20:52.311Z,99445.00
2023-05-14T18:23:19.640Z,99456.16
2023-05-14T18:25:48.377Z,99461.00
2023-05-14T18:28:16.100Z,99469.25
2023-05-14T18:30:43.694Z,99468.47
2023-05-14T18:33:11.481Z,99460.16
2023-05-14T18:35:39.137Z,99456.03
2023-05-14T18:38:08.074Z,99454.81
2023-05-14T18:40:35.600Z,99470.88
2023-05-14T18:43:03.120Z,99470.06
2023-05-14T18:45:30.506Z,99462.88
2023-05-14T18:47:57.927Z,99476.00
2023-05-14T18:50:25.296Z,99469.09
2023-05-14T18:52:53.017Z,99467.56
2023-05-14T18:55:21.208Z,99465.03
2023-05-14T18:57:49.432Z,99465.31
2023-05-14T19:00:16.879Z,99464.66
2023-05-14T19:02:44.378Z,99462.22
2023-05-14T19:05:12.177Z,99463.78
2023-05-14T19:07:41.510Z,99454.66
2023-05-14T19:10:10.387Z,99460.47
2023-05-14T19:12:37.551Z,99451.47
2023-05-14T19:15:05.823Z,99446.06
2023-05-14T19:17:33.586Z,99442.66
2023-05-14T19:20:01.084Z,99450.91
2023-05-14T19:22:28.537Z,99452.94
2023-05-14T19:24:56.039Z,99431.13
2023-05-14T19:27:24.400Z,99440.44
2023-05-14T19:29:51.761Z,99433.72
2023-05-14T19:32:19.586Z,99435.50
2023-05-14T19:34:48.456Z,99430.41
2023-05-14T19:37:17.395Z,99435.53
2023-05-14T19:39:52.452Z,99432.19
2023-05-14T19:42:19.999Z,99428.81
2023-05-14T19:44:47.677Z,99423.19
2023-05-14T19:47:15.775Z,99418.19
2023-05-14T19:49:43.007Z,99413.44
2023-05-14T19:52:17.239Z,99422.56
2023-05-14T19:54:44.815Z,99427.59
2023-05-14T19:57:12.659Z,99429.56
2023-05-14T19:59:40.821Z,99406.44
2023-05-14T20:02:09.556Z,99411.72
2023-05-14T20:04:40.050Z,99418.06
2023-05-14T20:07:08.605Z,99413.06
2023-05-14T20:09:35.790Z,99413.03
2023-05-14T20:12:03.574Z,99408.91
2023-05-14T20:14:30.995Z,99399.37
2023-05-14T20:17:00.292Z,99403.62
2023-05-14T20:19:27.892Z,99408.47
2023-05-14T20:21:56.253Z,99402.91
2023-05-14T20:24:23.599Z,99406.69
2023-05-14T20:26:51.654Z,99408.72
2023-05-14T20:29:19.044Z,99406.69
2023-05-14T20:31:46.198Z,99400.88
2023-05-14T20:34:13.803Z,99399.16
2023-05-14T20:36:41.843Z,99392.56
2023-05-14T20:39:09.072Z,99387.53
2023-05-14T20:41:36.743Z,99389.09
2023-05-14T20:44:03.904Z,99376.72
2023-05-14T20:46:32.311Z,99366.50
2023-05-14T20:49:04.222Z,99367.91
2023-05-14T20:51:33.118Z,99369.50
2023-05-14T20:54:00.893Z,99372.28
2023-05-14T20:56:28.080Z,99366.47
2023-05-14T20:58:55.253Z,99349.41
2023-05-14T21:01:22.756Z,99339.59
2023-05-14T21:03:50.122Z,99329.84
2023-05-14T21:06:17.412Z,99329.13
2023-05-14T21:08:44.876Z,99328.16
2023-05-14T21:11:12.016Z,99330.84
2023-05-14T21:13:39.183Z,99334.16
2023-05-14T21:16:06.808Z,99325.41
2023-05-14T21:18:35.292Z,99332.56
2023-05-14T21:21:02.508Z,99328.09
2023-05-14T21:23:29.978Z,99324.19
2023-05-14T21:25:57.975Z,99328.03
2023-05-14T21:28:25.160Z,99324.31
2023-05-14T21:30:53.015Z,99319.44
2023-05-14T21:33:20.296Z,99311.72
2023-05-14T21:35:47.416Z,99294.13
2023-05-14T21:38:14.985Z,99287.88
2023-05-14T21:40:42.131Z,99284.59
2023-05-14T21:43:09.325Z,99264.94
2023-05-14T21:45:36.798Z,99249.44
2023-05-14T21:48:04.078Z,99243.44
2023-05-14T21:50:31.324Z,99248.69
2023-05-14T21:52:58.708Z,99270.41
2023-05-14T21:55:27.661Z,99272.38
2023-05-14T21:57:55.374Z,99267.88
2023-05-14T22:00:25.792Z,99271.63
2023-05-14T22:02:53.343Z,99285.41
2023-05-14T22:05:20.850Z,99293.06
2023-05-14T22:07:48.356Z,99294.22
2023-05-14T22:10:16.008Z,99295.28
2023-05-14T22:12:43.790Z,99298.31
2023-05-14T22:15:11.317Z,99303.00
2023-05-14T22:17:39.504Z,99303.31
2023-05-14T22:20:06.984Z,99299.19
2023-05-14T22:22:34.375Z,99296.66
2023-05-14T22:25:02.170Z,99300.37
2023-05-14T22:27:30.280Z,99293.28
2023-05-14T22:29:57.650Z,99297.59
2023-05-14T22:32:25.167Z,99290.34
2023-05-14T22:34:52.471Z,99286.47
2023-05-14T22:37:19.726Z,99290.84
2023-05-14T22:39:47.205Z,99293.72
2023-05-14T22:42:14.455Z,99293.97
2023-05-14T22:44:41.611Z,99289.78
2023-05-14T22:47:09.065Z,99292.34
2023-05-14T22:49:36.242Z,99301.97
2023-05-14T22:52:03.471Z,99297.59
2023-05-14T22:54:30.884Z,99293.44
2023-05-14T22:56:58.064Z,99306.31
2023-05-14T22:59:25.336Z,99301.09
2023-05-14T23:01:52.808Z,99299.97
2023-05-14T23:04:21.019Z,99295.94
2023-05-14T23:06:48.465Z,99282.06
2023-05-14T23:09:15.962Z,99274.22
2023-05-14T23:11:45.230Z,99277.56
2023-05-14T23:14:12.380Z,99278.31
2023-05-14T23:16:39.818Z,99274.81
2023-05-14T23:19:07.337Z,99263.69
2023-05-14T23:21:34.625Z,99261.81
2023-05-14T23:24:02.112Z,99250.25
2023-05-14T23:26:29.272Z,99243.62
2023-05-14T23:28:56.425Z,99236.41
2023-05-14T23:31:23.878Z,99235.03
2023-05-14T23:33:51.077Z,99226.97
2023-05-14T23:36:18.326Z,99228.72
2023-05-14T23:38:45.830Z,99225.19
2023-05-14T23:41:12.993Z,99222.56
2023-05-14T23:43:40.144Z,99223.19
2023-05-14T23:46:08.760Z,99224.00
2023-05-14T23:48:35.990Z,99214.50
2023-05-14T23:51:03.197Z,99210.88
2023-05-14T23:53:30.652Z,99200.56
2023-05-14T23:55:57.779Z,99195.44
2023-05-14T23:58:25.022Z,99197.66
